createdAt,value
2022-11-27T00:01:11.686Z,0.40
2022-11-27T00:04:53.401Z,0.90
2022-11-27T00:08:35.129Z,0.52
2022-11-27T00:12:16.882Z,0.75
2022-11-27T00:15:58.649Z,0.90
2022-11-27T00:19:40.593Z,0.60
2022-11-27T00:23:22.437Z,1.30
2022-11-27T00:27:04.209Z,0.57
2022-11-27T00:30:46.150Z,0.60
2022-11-27T00:34:27.946Z,0.70
2022-11-27T00:38:09.670Z,0.45
2022-11-27T00:41:51.414Z,0.52
2022-11-27T00:45:33.097Z,0.70
2022-11-27T00:49:15.185Z,0.75
2022-11-27T00:52:57.064Z,0.65
2022-11-27T00:56:39.361Z,0.93
2022-11-27T01:00:21.173Z,0.93
2022-11-27T01:04:03.652Z,0.90
2022-11-27T01:07:45.394Z,1.30
2022-11-27T01:11:30.823Z,1.40
2022-11-27T01:15:12.533Z,1.50
2022-11-27T01:18:55.457Z,1.60
2022-11-27T01:22:37.156Z,1.27
2022-11-27T01:26:20.235Z,1.10
2022-11-27T01:30:02.029Z,1.30
2022-11-27T01:33:44.320Z,1.30
2022-11-27T01:37:25.993Z,1.67
2022-11-27T01:41:14.551Z,1.85
2022-11-27T01:44:56.612Z,1.52
2022-11-27T01:48:38.286Z,1.70
2022-11-27T01:52:28.164Z,1.65
2022-11-27T01:56:09.885Z,1.65
2022-11-27T01:59:52.081Z,1.60
2022-11-27T02:03:33.930Z,1.73
2022-11-27T02:07:15.731Z,1.70
2022-11-27T02:11:02.937Z,1.88
2022-11-27T02:15:18.694Z,1.83
2022-11-27T02:19:29.566Z,2.05
2022-11-27T02:23:30.052Z,1.58
2022-11-27T02:27:26.811Z,1.80
2022-11-27T02:31:38.225Z,2.05
2022-11-27T02:35:23.523Z,1.90
2022-11-27T02:39:07.842Z,1.67
2022-11-27T02:42:57.935Z,1.70
2022-11-27T02:46:39.683Z,2.47
2022-11-27T02:50:22.573Z,2.30
2022-11-27T02:54:06.353Z,1.97
2022-11-27T03:01:31.789Z,2.30
2022-11-27T03:05:15.089Z,2.08
2022-11-27T03:09:04.096Z,1.75
2022-11-27T03:12:47.090Z,3.17
2022-11-27T03:16:28.809Z,1.77
2022-11-27T03:20:28.053Z,2.10
2022-11-27T03:24:10.331Z,1.90
2022-11-27T03:28:03.865Z,2.20
2022-11-27T03:31:45.636Z,2.97
2022-11-27T03:35:27.669Z,2.40
2022-11-27T03:39:09.432Z,2.35
2022-11-27T03:43:01.389Z,2.38
2022-11-27T03:47:01.913Z,2.95
2022-11-27T03:51:08.888Z,2.85
2022-11-27T03:55:16.661Z,2.30
2022-11-27T03:59:18.222Z,3.72
2022-11-27T04:02:59.931Z,2.40
2022-11-27T04:06:41.591Z,2.50
2022-11-27T04:10:23.327Z,3.50
2022-11-27T04:14:05.019Z,2.75
2022-11-27T04:17:46.677Z,2.33
2022-11-27T04:21:28.401Z,2.53
2022-11-27T04:25:10.075Z,2.90
2022-11-27T04:28:51.831Z,3.17
2022-11-27T04:32:33.592Z,3.03
2022-11-27T04:36:15.276Z,3.05
2022-11-27T04:39:56.953Z,2.95
2022-11-27T04:43:38.862Z,3.25
2022-11-27T04:47:20.550Z,2.80
2022-11-27T04:51:02.309Z,2.92
2022-11-27T04:54:46.097Z,2.85
2022-11-27T04:58:27.767Z,3.03
2022-11-27T05:02:09.769Z,2.30
2022-11-27T05:05:56.422Z,2.90
2022-11-27T05:09:38.089Z,2.83
2022-11-27T05:13:19.813Z,4.38
2022-11-27T05:17:01.629Z,3.28
2022-11-27T05:20:43.369Z,3.45
2022-11-27T05:24:26.371Z,4.03
2022-11-27T05:28:08.046Z,3.35
2022-11-27T05:31:49.788Z,3.95
2022-11-27T05:35:31.495Z,4.20
2022-11-27T05:39:13.267Z,4.47
2022-11-27T05:42:54.971Z,3.22
2022-11-27T05:46:36.754Z,3.10
2022-11-27T05:50:18.742Z,4.20
2022-11-27T05:54:00.441Z,3.85
2022-11-27T05:57:42.106Z,3.53
2022-11-27T06:01:23.981Z,3.38
2022-11-27T06:05:06.116Z,3.55
2022-11-27T06:08:47.935Z,3.65
2022-11-27T06:12:32.021Z,3.72
2022-11-27T06:16:15.451Z,4.30
2022-11-27T06:19:57.227Z,3.00
2022-11-27T06:23:40.239Z,3.85
2022-11-27T06:27:21.962Z,4.05
2022-11-27T06:31:21.241Z,3.63
2022-11-27T06:35:03.017Z,4.18
2022-11-27T06:38:45.094Z,4.05
2022-11-27T06:42:29.909Z,3.97
2022-11-27T06:46:13.823Z,4.07
2022-11-27T06:49:55.605Z,3.95
2022-11-27T06:53:37.575Z,4.63
2022-11-27T06:57:19.261Z,4.22
2022-11-27T07:01:05.575Z,4.65
2022-11-27T07:05:06.308Z,4.35
2022-11-27T07:08:48.038Z,4.32
2022-11-27T07:12:29.731Z,4.70
2022-11-27T07:16:11.709Z,4.70
2022-11-27T07:19:53.471Z,4.40
2022-11-27T07:23:35.658Z,3.47
2022-11-27T07:27:17.325Z,4.00
2022-11-27T07:30:59.176Z,4.07
2022-11-27T07:34:40.987Z,4.63
2022-11-27T07:38:22.745Z,4.20
2022-11-27T07:42:36.491Z,4.20
2022-11-27T07:46:07.195Z,5.00
2022-11-27T07:49:48.893Z,3.70
2022-11-27T07:53:30.622Z,3.92
2022-11-27T07:57:12.385Z,3.95
2022-11-27T08:00:54.114Z,4.72
2022-11-27T08:04:35.893Z,3.78
2022-11-27T08:08:17.660Z,4.88
2022-11-27T08:11:59.373Z,5.03
2022-11-27T08:15:41.166Z,4.47
2022-11-27T08:19:22.953Z,6.07
2022-11-27T08:23:04.814Z,7.88
2022-11-27T08:26:46.487Z,5.70
2022-11-27T08:30:28.657Z,4.55
2022-11-27T08:34:10.352Z,5.28
2022-11-27T08:37:52.090Z,5.50
2022-11-27T08:41:33.769Z,6.00
2022-11-27T08:45:15.508Z,5.43
2022-11-27T08:48:59.233Z,6.03
2022-11-27T08:56:24.350Z,5.35
2022-11-27T09:00:06.906Z,5.07
2022-11-27T09:03:48.852Z,4.55
2022-11-27T09:07:30.661Z,4.72
2022-11-27T09:11:12.738Z,4.40
2022-11-27T09:14:54.559Z,5.03
2022-11-27T09:18:36.276Z,5.05
2022-11-27T09:22:19.027Z,6.13
2022-11-27T09:26:05.088Z,6.53
2022-11-27T09:29:46.803Z,6.25
2022-11-27T09:33:29.721Z,6.32
2022-11-27T09:37:11.521Z,6.90
2022-11-27T09:40:59.182Z,5.50
2022-11-27T09:44:49.369Z,6.45
2022-11-27T09:48:36.532Z,5.80
2022-11-27T09:52:25.573Z,5.70
2022-11-27T09:56:07.281Z,7.38
2022-11-27T09:59:50.658Z,5.82
2022-11-27T10:03:32.784Z,6.10
2022-11-27T10:07:39.694Z,8.10
2022-11-27T10:12:00.976Z,7.97
2022-11-27T10:16:07.624Z,10.65
2022-11-27T10:20:11.875Z,7.07
2022-11-27T10:24:03.688Z,6.30
2022-11-27T10:28:05.737Z,6.22
2022-11-27T10:31:49.707Z,7.20
2022-11-27T10:35:31.773Z,6.38
2022-11-27T10:39:17.380Z,6.70
2022-11-27T10:43:10.345Z,6.03
2022-11-27T10:46:52.473Z,5.60
2022-11-27T10:50:34.328Z,5.97
2022-11-27T10:54:28.841Z,5.57
2022-11-27T10:58:10.507Z,6.43
2022-11-27T11:01:55.507Z,6.97
2022-11-27T11:06:04.219Z,6.13
2022-11-27T11:09:38.905Z,6.07
2022-11-27T11:13:27.858Z,7.22
2022-11-27T11:17:15.752Z,8.38
2022-11-27T11:20:59.462Z,5.90
2022-11-27T11:28:27.719Z,6.60
2022-11-27T11:32:13.877Z,7.90
2022-11-27T11:35:57.292Z,7.68
2022-11-27T11:39:46.158Z,6.57
2022-11-27T11:43:36.331Z,7.72
2022-11-27T11:47:18.796Z,5.90
2022-11-27T11:51:04.723Z,6.68
2022-11-27T11:55:03.698Z,6.35
2022-11-27T11:58:53.619Z,7.78
2022-11-27T12:03:01.473Z,6.63
2022-11-27T12:06:51.269Z,7.40
2022-11-27T12:10:38.158Z,6.75
2022-11-27T12:14:40.737Z,6.15
2022-11-27T12:18:47.972Z,6.97
2022-11-27T12:22:48.333Z,6.93
2022-11-27T12:26:56.039Z,7.45
2022-11-27T12:31:03.628Z,7.57
2022-11-27T12:35:01.208Z,7.85
2022-11-27T12:38:48.910Z,7.80
2022-11-27T12:43:10.849Z,6.93
2022-11-27T12:46:58.645Z,8.45
2022-11-27T12:50:56.597Z,9.13
2022-11-27T12:54:48.166Z,9.27
2022-11-27T12:58:32.977Z,8.57
2022-11-27T13:02:32.871Z,10.80
2022-11-27T13:06:17.545Z,9.82
2022-11-27T13:10:26.106Z,8.77
2022-11-27T13:14:11.214Z,8.27
2022-11-27T13:17:58.820Z,8.77
2022-11-27T13:21:40.656Z,9.00
2022-11-27T13:25:22.428Z,8.55
2022-11-27T13:29:23.476Z,7.78
2022-11-27T13:33:07.077Z,9.93
2022-11-27T13:36:56.259Z,8.30
2022-11-27T13:40:40.497Z,8.38
2022-11-27T13:44:24.930Z,8.00
2022-11-27T13:48:25.289Z,7.88
2022-11-27T13:52:14.573Z,9.45
2022-11-27T13:55:57.688Z,9.27
2022-11-27T13:59:39.766Z,9.15
2022-11-27T14:03:26.372Z,8.18
2022-11-27T14:07:16.115Z,7.47
2022-11-27T14:10:59.733Z,7.85
2022-11-27T14:14:41.994Z,7.57
2022-11-27T14:18:23.852Z,8.35
2022-11-27T14:22:48.521Z,6.30
2022-11-27T14:26:40.625Z,8.43
2022-11-27T14:30:39.641Z,6.75
2022-11-27T14:34:34.330Z,6.20
2022-11-27T14:38:16.423Z,7.82
2022-11-27T14:42:07.966Z,7.78
2022-11-27T14:45:54.398Z,7.43
2022-11-27T14:49:36.111Z,7.28
2022-11-27T14:53:20.746Z,7.80
2022-11-27T14:57:02.559Z,8.15
2022-11-27T15:00:51.854Z,6.95
2022-11-27T15:04:38.194Z,7.28
2022-11-27T15:08:19.920Z,7.05
2022-11-27T15:12:29.630Z,7.95
2022-11-27T15:16:19.588Z,7.10
2022-11-27T15:20:01.995Z,7.22
2022-11-27T15:24:02.670Z,8.27
2022-11-27T15:27:45.906Z,7.90
2022-11-27T15:31:37.416Z,9.70
2022-11-27T15:35:27.645Z,10.30
2022-11-27T15:39:17.540Z,8.60
2022-11-27T15:43:00.273Z,8.75
2022-11-27T15:46:41.991Z,9.15
2022-11-27T15:50:23.658Z,7.60
2022-11-27T15:54:07.500Z,8.23
2022-11-27T15:57:49.261Z,8.00
2022-11-27T16:01:52.009Z,7.43
2022-11-27T16:05:33.854Z,7.00
2022-11-27T16:09:15.569Z,8.07
2022-11-27T16:12:58.841Z,7.68
2022-11-27T16:16:40.759Z,14.40
2022-11-27T16:20:22.479Z,12.60
2022-11-27T16:24:10.589Z,15.15
2022-11-27T16:27:54.584Z,12.20
2022-11-27T16:31:39.916Z,11.63
2022-11-27T16:35:21.702Z,19.20
2022-11-27T16:39:03.416Z,16.85
2022-11-27T16:42:45.364Z,22.48
2022-11-27T16:46:28.328Z,16.98
2022-11-27T16:50:10.318Z,16.13
2022-11-27T16:53:54.150Z,12.57
2022-11-27T16:57:35.822Z,11.50
2022-11-27T17:01:29.039Z,12.77
2022-11-27T17:05:10.810Z,12.80
2022-11-27T17:08:54.123Z,22.20
2022-11-27T17:12:37.037Z,8.27
2022-11-27T17:16:19.291Z,9.20
2022-11-27T17:20:01.084Z,11.07
2022-11-27T17:23:47.129Z,15.13
2022-11-27T17:27:28.856Z,13.82
2022-11-27T17:31:11.743Z,11.23
2022-11-27T17:34:53.665Z,12.30
2022-11-27T17:38:35.428Z,9.90
2022-11-27T17:42:22.465Z,10.60
2022-11-27T17:46:16.066Z,18.70
2022-11-27T17:49:57.820Z,15.15
2022-11-27T17:53:40.628Z,17.23
2022-11-27T17:57:22.396Z,21.73
2022-11-27T18:01:05.195Z,24.40
2022-11-27T18:04:48.147Z,22.07
2022-11-27T18:08:29.950Z,24.70
2022-11-27T18:12:12.745Z,19.88
2022-11-27T18:15:54.461Z,15.83
2022-11-27T18:19:36.213Z,16.08
2022-11-27T18:23:18.128Z,13.63
2022-11-27T18:27:09.161Z,12.40
2022-11-27T18:30:51.113Z,14.57
2022-11-27T18:34:33.353Z,17.25
2022-11-27T18:38:15.232Z,13.55
2022-11-27T18:41:57.226Z,14.32
2022-11-27T18:45:38.932Z,19.33
2022-11-27T18:49:22.866Z,14.82
2022-11-27T18:53:05.004Z,15.55
2022-11-27T18:56:46.677Z,11.90
2022-11-27T19:00:28.402Z,11.68
2022-11-27T19:04:11.003Z,12.30
2022-11-27T19:07:52.740Z,13.00
2022-11-27T19:11:35.144Z,12.45
2022-11-27T19:15:16.997Z,16.05
2022-11-27T19:18:59.117Z,16.38
2022-11-27T19:22:41.005Z,11.07
2022-11-27T19:26:24.058Z,10.07
2022-11-27T19:30:06.453Z,10.40
2022-11-27T19:33:55.533Z,8.93
2022-11-27T19:37:37.373Z,13.13
2022-11-27T19:41:19.060Z,11.13
2022-11-27T19:45:00.742Z,10.35
2022-11-27T19:52:48.344Z,8.68
2022-11-27T19:56:32.329Z,7.97
2022-11-27T20:00:14.377Z,9.02
2022-11-27T20:03:56.186Z,10.40
2022-11-27T20:07:37.922Z,9.88
2022-11-27T20:11:21.167Z,10.68
2022-11-27T20:15:07.668Z,10.38
2022-11-27T20:18:49.429Z,8.38
2022-11-27T20:22:32.560Z,9.90
2022-11-27T20:26:16.082Z,12.63
2022-11-27T20:30:00.035Z,12.23
2022-11-27T20:33:42.881Z,12.88
2022-11-27T20:37:24.609Z,14.70
2022-11-27T20:41:10.565Z,13.05
2022-11-27T20:44:53.485Z,12.18
2022-11-27T20:48:35.259Z,13.40
2022-11-27T20:52:20.465Z,13.25
2022-11-27T20:56:05.874Z,9.48
2022-11-27T20:59:47.553Z,9.10
2022-11-27T21:03:29.725Z,9.07
2022-11-27T21:07:11.827Z,11.98
2022-11-27T21:10:53.548Z,19.73
2022-11-27T21:14:36.122Z,13.77
2022-11-27T21:18:17.801Z,10.68
2022-11-27T21:22:00.689Z,9.85
2022-11-27T21:25:43.601Z,7.87
2022-11-27T21:29:27.719Z,9.57
2022-11-27T21:33:10.694Z,9.63
2022-11-27T21:36:52.408Z,11.63
2022-11-27T21:40:34.217Z,10.05
2022-11-27T21:44:17.887Z,12.02
2022-11-27T21:47:59.581Z,15.43
2022-11-27T21:51:42.541Z,11.70
2022-11-27T21:55:24.226Z,10.77
2022-11-27T21:59:10.396Z,12.00
2022-11-27T22:02:52.235Z,11.93
2022-11-27T22:06:38.836Z,9.55
2022-11-27T22:10:20.537Z,8.88
2022-11-27T22:14:06.654Z,9.95
2022-11-27T22:17:48.609Z,10.20
2022-11-27T22:21:30.870Z,6.85
2022-11-27T22:25:12.622Z,7.85
2022-11-27T22:28:54.372Z,7.03
2022-11-27T22:32:37.073Z,7.13
2022-11-27T22:36:22.114Z,7.85
2022-11-27T22:40:04.401Z,8.30
2022-11-27T22:43:46.159Z,8.43
2022-11-27T22:47:27.909Z,7.15
2022-11-27T22:51:09.714Z,7.70
2022-11-27T22:54:51.455Z,7.88
2022-11-27T22:58:36.057Z,6.70
2022-11-27T23:02:20.191Z,7.30
2022-11-27T23:06:01.935Z,6.40
2022-11-27T23:09:43.779Z,6.20
2022-11-27T23:13:25.497Z,6.70
2022-11-27T23:17:07.241Z,10.15
2022-11-27T23:20:48.987Z,7.60
2022-11-27T23:24:30.826Z,6.10
2022-11-27T23:28:12.493Z,5.72
2022-11-27T23:31:54.246Z,6.35
2022-11-27T23:35:36.010Z,8.35
2022-11-27T23:39:17.669Z,6.35
2022-11-27T23:42:59.352Z,6.85
2022-11-27T23:46:41.060Z,6.40
2022-11-27T23:50:22.749Z,5.03
2022-11-27T23:54:08.538Z,4.78
2022-11-27T23:57:50.209Z,5.25
